Forside
METAR-TAF:

METAR-TAF

Lufthavne :

Trollhättan-Vänersborg, Sverige

Breddekreds: 58-19N, længdekreds: 012-21E, højde: 41 m

Aktuelle vejr

Denne rapport blev lavet for 34 minutter siden, kl. 23:50 UTC
Vind 4 kt fra sydvest, varierende mellem syd og vestsydvest
Temperatur 2°C
Fugtighed 93%
Tryk 1025 hPa
Sigt: 0350 m
tåge

METAR: ESGT 222350Z AUTO 22004KT 190V250 0350 R15/1500D R33/1100N FG OVC001/// 02/01 Q1025

Tid: 01:24 (00:24 UTC)


TAF: fraværende

Vejrobservationer og prognoser fra mere end 4000 lufthavne (METAR og TAF).

De gule og røde prikker repræsenterer de meteorologiske stationer.

Flyt musen over at se navnet på stationen.

Så klik over at se vejr observationer og prognoser.

At skifte det kort: Klik på de grønne knapper med et sort kors for at zoome ind; på den grønne knap med en bindestreg for at zoome ud; eller på de grønne pile for tilstødende kort.


METAR-TAF: